createdAt,value
2018-09-03T00:00:07.791Z,87.44
2018-09-03T00:01:16.703Z,87.73
2018-09-03T00:02:25.348Z,87.59
2018-09-03T00:03:33.998Z,87.4
2018-09-03T00:04:42.650Z,87.68
2018-09-03T00:05:51.551Z,88.02
2018-09-03T00:07:00.201Z,87.92
2018-09-03T00:08:09.375Z,88.02
2018-09-03T00:09:18.028Z,88.07
2018-09-03T00:10:26.666Z,88.17
2018-09-03T00:11:35.315Z,88.07
2018-09-03T00:12:43.959Z,88.55
2018-09-03T00:13:52.877Z,88.65
2018-09-03T00:15:01.516Z,89.41
2018-09-03T00:16:10.180Z,89.89
2018-09-03T00:17:19.354Z,90.66
2018-09-03T00:18:28.018Z,90.66
2018-09-03T00:19:36.921Z,90.66
2018-09-03T00:20:45.563Z,90.28
2018-09-03T00:21:54.208Z,91.42
2018-09-03T00:23:02.851Z,91.14
2018-09-03T00:24:11.776Z,91.33
2018-09-03T00:25:20.416Z,91.09
2018-09-03T00:26:29.071Z,91.57
2018-09-03T00:27:37.977Z,91.86
2018-09-03T00:28:46.632Z,91.86
2018-09-03T00:29:55.276Z,91.48
2018-09-03T00:31:03.928Z,91.48
2018-09-03T00:32:12.568Z,91.28
2018-09-03T00:33:21.221Z,92.34
2018-09-03T00:34:30.137Z,92.24
2018-09-03T00:35:39.045Z,91.77
2018-09-03T00:36:47.689Z,91.67
2018-09-03T00:37:56.345Z,92.1
2018-09-03T00:39:04.995Z,92.15
2018-09-03T00:40:13.647Z,92.87
2018-09-03T00:41:22.824Z,92.97
2018-09-03T00:42:31.460Z,93.16
2018-09-03T00:43:40.114Z,92.77
2018-09-03T00:44:48.760Z,94.12
2018-09-03T00:45:57.415Z,93.54
2018-09-03T00:47:06.052Z,93.83
2018-09-03T00:48:14.703Z,94.31
2018-09-03T00:49:23.345Z,93.63
2018-09-03T00:50:32.008Z,94.21
2018-09-03T00:51:40.909Z,94.21
2018-09-03T00:52:49.823Z,94.21
2018-09-03T00:53:58.470Z,94.31
2018-09-03T00:55:07.125Z,94.4
2018-09-03T00:56:15.769Z,94.31
2018-09-03T00:57:24.679Z,93.73
2018-09-03T00:58:33.324Z,93.73
2018-09-03T00:59:41.971Z,93.63
2018-09-03T01:00:50.630Z,93.63
2018-09-03T01:01:59.269Z,93.06
2018-09-03T01:03:07.918Z,92.68
2018-09-03T01:04:16.559Z,92.87
2018-09-03T01:05:25.206Z,92.77
2018-09-03T01:06:34.116Z,92.58
2018-09-03T01:07:43.286Z,93.35
2018-09-03T01:08:52.201Z,92.97
2018-09-03T01:10:00.838Z,93.26
2018-09-03T01:11:09.754Z,92.87
2018-09-03T01:12:18.399Z,92.97
2018-09-03T01:13:27.055Z,93.26
2018-09-03T01:14:35.700Z,93.26
2018-09-03T01:15:44.609Z,93.26
2018-09-03T01:16:53.252Z,94.02
2018-09-03T01:18:01.899Z,94.69
2018-09-03T01:19:10.813Z,94.4
2018-09-03T01:20:19.454Z,94.12
2018-09-03T01:21:28.107Z,93.93
2018-09-03T01:22:37.004Z,94.5
2018-09-03T01:23:45.657Z,94.79
2018-09-03T01:24:54.297Z,93.93
2018-09-03T01:26:02.947Z,94.59
2018-09-03T01:27:11.583Z,94.79
2018-09-03T01:28:20.503Z,94.79
2018-09-03T01:29:29.206Z,93.93
2018-09-03T01:30:38.125Z,94.89
2018-09-03T01:31:46.760Z,94.69
2018-09-03T01:32:55.410Z,94.98
2018-09-03T01:34:04.335Z,94.89
2018-09-03T01:35:12.987Z,94.59
2018-09-03T01:36:21.900Z,94.69
2018-09-03T01:37:30.535Z,94.5
2018-09-03T01:38:39.189Z,94.59
2018-09-03T01:39:47.828Z,94.79
2018-09-03T01:40:56.750Z,94.69
2018-09-03T01:42:05.390Z,94.4
2018-09-03T01:43:14.042Z,95.17
2018-09-03T01:44:22.953Z,95.07
2018-09-03T01:45:32.134Z,94.89
2018-09-03T01:46:40.769Z,94.69
2018-09-03T01:47:49.419Z,94.5
2018-09-03T01:48:58.063Z,94.89
2018-09-03T01:50:06.724Z,94.69
2018-09-03T01:51:15.628Z,95.07
2018-09-03T01:52:24.268Z,94.5
2018-09-03T01:53:32.912Z,94.69
2018-09-03T01:54:41.557Z,95.17
2018-09-03T01:55:50.212Z,94.59
2018-09-03T01:56:58.851Z,95.17
2018-09-03T01:58:07.499Z,95.07
2018-09-03T01:59:16.145Z,94.4
2018-09-03T02:00:24.800Z,95.12
2018-09-03T02:01:33.444Z,95.17
2018-09-03T02:02:42.098Z,94.89
2018-09-03T02:03:50.738Z,95.79
2018-09-03T02:04:59.385Z,95.46
2018-09-03T02:06:08.030Z,95.07
2018-09-03T02:07:16.677Z,96.03
2018-09-03T02:08:25.318Z,95.89
2018-09-03T02:09:33.967Z,95.94
2018-09-03T02:10:42.613Z,95.98
2018-09-03T02:11:51.558Z,96.03
2018-09-03T02:13:00.171Z,96.18
2018-09-03T02:14:08.809Z,96.18
2018-09-03T02:15:17.449Z,95.79
2018-09-03T02:16:26.095Z,95.36
2018-09-03T02:17:34.745Z,95.79
2018-09-03T02:18:43.386Z,96.08
2018-09-03T02:19:52.031Z,95.98
2018-09-03T02:21:00.676Z,95.98
2018-09-03T02:22:09.327Z,96.08
2018-09-03T02:23:17.971Z,96.37
2018-09-03T02:24:26.617Z,95.79
2018-09-03T02:25:35.260Z,96.37
2018-09-03T02:26:43.913Z,95.12
2018-09-03T02:27:52.561Z,95.21
2018-09-03T02:29:01.200Z,95.31
2018-09-03T02:30:09.849Z,94.93
2018-09-03T02:31:19.018Z,94.93
2018-09-03T02:32:27.942Z,95.41
2018-09-03T02:33:36.870Z,96.37
2018-09-03T02:34:45.520Z,94.45
2018-09-03T02:35:54.426Z,94.64
2018-09-03T02:37:03.078Z,94.64
2018-09-03T02:38:11.730Z,95.21
2018-09-03T02:39:20.378Z,94.84
2018-09-03T02:40:29.020Z,94.93
2018-09-03T02:41:37.671Z,95.03
2018-09-03T02:42:46.577Z,94.84
2018-09-03T02:43:55.225Z,94.93
2018-09-03T02:45:03.866Z,94.93
2018-09-03T02:46:12.515Z,94.74
2018-09-03T02:47:21.162Z,94.45
2018-09-03T02:48:29.811Z,94.54
2018-09-03T02:49:38.462Z,94.64
2018-09-03T02:50:47.103Z,94.45
2018-09-03T02:51:55.749Z,95.21
2018-09-03T02:53:04.662Z,94.64
2018-09-03T02:54:13.587Z,95.03
2018-09-03T02:55:22.227Z,94.84
2018-09-03T02:56:31.136Z,94.84
2018-09-03T02:57:40.045Z,94.12
2018-09-03T02:58:48.701Z,95.03
2018-09-03T02:59:57.343Z,95.03
2018-09-03T03:01:05.992Z,94.84
2018-09-03T03:02:14.635Z,94.84
2018-09-03T03:03:23.294Z,94.74
2018-09-03T03:04:32.204Z,95.12
2018-09-03T03:05:41.119Z,94.64
2018-09-03T03:06:49.761Z,94.93
2018-09-03T03:07:58.997Z,95.03
2018-09-03T03:09:07.651Z,94.45
2018-09-03T03:10:16.296Z,94.74
2018-09-03T03:11:24.945Z,95.03
2018-09-03T03:12:33.585Z,95.21
2018-09-03T03:13:42.509Z,95.41
2018-09-03T03:14:51.149Z,96.27
2018-09-03T03:16:00.066Z,96.03
2018-09-03T03:17:08.698Z,95.84
2018-09-03T03:18:17.353Z,96.03
2018-09-03T03:19:26.004Z,96.32
2018-09-03T03:20:34.648Z,96.99
2018-09-03T03:21:43.563Z,96.89
2018-09-03T03:22:52.481Z,96.61
2018-09-03T03:24:01.131Z,96.51
2018-09-03T03:25:10.052Z,96.89
2018-09-03T03:26:18.701Z,96.89
2018-09-03T03:27:27.339Z,97.33
2018-09-03T03:28:35.989Z,97.8
2018-09-03T03:29:44.630Z,98.43
2018-09-03T03:30:53.576Z,98.52
2018-09-03T03:32:02.744Z,98.14
2018-09-03T03:33:12.199Z,98.67
2018-09-03T03:34:20.839Z,98.19
2018-09-03T03:35:29.493Z,97.9
2018-09-03T03:36:38.392Z,97.9
2018-09-03T03:37:47.040Z,98
2018-09-03T03:38:55.689Z,97.61
2018-09-03T03:40:04.863Z,98.1
2018-09-03T03:41:13.506Z,98.28
2018-09-03T03:42:22.147Z,97.95
2018-09-03T03:43:30.790Z,98.24
2018-09-03T03:44:39.441Z,97.76
2018-09-03T03:45:48.091Z,97.95
2018-09-03T03:46:56.733Z,98.05
2018-09-03T03:48:05.388Z,97.56
2018-09-03T03:49:14.027Z,97.18
2018-09-03T03:50:22.696Z,97.47
2018-09-03T03:51:31.339Z,97.47
2018-09-03T03:52:39.991Z,97.47
2018-09-03T03:53:48.627Z,97.28
2018-09-03T03:54:57.286Z,97.18
2018-09-03T03:56:05.931Z,97.47
2018-09-03T03:57:14.580Z,98.24
2018-09-03T03:58:23.217Z,97.95
2018-09-03T03:59:32.144Z,97.71
2018-09-03T04:00:40.803Z,98.96
2018-09-03T04:01:49.446Z,98.38
2018-09-03T04:02:58.096Z,98.1
2018-09-03T04:04:06.744Z,98.47
2018-09-03T04:05:15.397Z,98.76
2018-09-03T04:06:24.307Z,98.76
2018-09-03T04:07:32.956Z,99.63
2018-09-03T04:08:41.601Z,99.43
2018-09-03T04:09:50.240Z,99.15
2018-09-03T04:10:58.889Z,98.96
2018-09-03T04:12:07.541Z,99.34
2018-09-03T04:13:16.182Z,99.24
2018-09-03T04:14:24.845Z,99.63
2018-09-03T04:15:33.473Z,99.72
2018-09-03T04:16:42.121Z,99.15
2018-09-03T04:17:50.763Z,99.43
2018-09-03T04:18:59.411Z,99.15
2018-09-03T04:20:08.321Z,99.99
2018-09-03T04:21:17.227Z,99.99
2018-09-03T04:22:25.875Z,99.99
2018-09-03T04:23:34.520Z,99.99
2018-09-03T04:24:43.166Z,99.99
2018-09-03T04:25:51.806Z,99.91
2018-09-03T04:27:00.456Z,99.99
2018-09-03T04:28:09.103Z,99.91
2018-09-03T04:29:17.748Z,99.53
2018-09-03T04:30:26.389Z,99.72
2018-09-03T04:31:35.040Z,99.63
2018-09-03T04:32:43.948Z,99.43
2018-09-03T04:33:52.858Z,99.43
2018-09-03T04:35:01.497Z,99.43
2018-09-03T04:36:10.420Z,99.43
2018-09-03T04:37:19.072Z,99.43
2018-09-03T04:38:27.980Z,99.43
2018-09-03T04:39:36.630Z,99.63
2018-09-03T04:40:45.277Z,99.43
2018-09-03T04:41:54.185Z,99.15
2018-09-03T04:43:02.835Z,99.34
2018-09-03T04:44:11.487Z,98.86
2018-09-03T04:45:20.391Z,99.24
2018-09-03T04:46:29.037Z,99.99
2018-09-03T04:47:37.685Z,99.53
2018-09-03T04:48:46.602Z,99.43
2018-09-03T04:49:55.250Z,99.99
2018-09-03T04:51:03.900Z,99.82
2018-09-03T04:52:12.543Z,99.99
2018-09-03T04:53:21.196Z,99.53
2018-09-03T04:54:29.846Z,99.99
2018-09-03T04:55:38.486Z,99.99
2018-09-03T04:56:47.129Z,99.99
2018-09-03T04:57:55.771Z,99.99
2018-09-03T04:59:04.420Z,99.99
2018-09-03T05:00:13.064Z,99.99
2018-09-03T05:01:21.971Z,99.99
2018-09-03T05:02:30.620Z,99.99
2018-09-03T05:03:39.262Z,99.99
2018-09-03T05:04:47.909Z,99.99
2018-09-03T05:05:56.607Z,99.99
2018-09-03T05:07:05.556Z,99.99
2018-09-03T05:08:14.197Z,99.99
2018-09-03T05:09:22.849Z,99.77
2018-09-03T05:10:31.756Z,99.39
2018-09-03T05:11:40.459Z,99.99
2018-09-03T05:12:49.057Z,99.99
2018-09-03T05:13:57.696Z,99.99
2018-09-03T05:15:06.357Z,99.99
2018-09-03T05:16:15.060Z,99.99
2018-09-03T05:17:23.744Z,99.99
2018-09-03T05:18:32.389Z,99.99
2018-09-03T05:19:41.041Z,99.99
2018-09-03T05:20:49.678Z,99.99
2018-09-03T05:21:58.338Z,99.96
2018-09-03T05:23:06.980Z,99.99
2018-09-03T05:24:15.628Z,99.99
2018-09-03T05:25:24.799Z,99.99
2018-09-03T05:26:33.449Z,99.99
2018-09-03T05:27:42.094Z,99.99
2018-09-03T05:28:50.746Z,99.99
2018-09-03T05:29:59.426Z,99.99
2018-09-03T05:31:08.093Z,99.99
2018-09-03T05:32:16.687Z,99.99
2018-09-03T05:33:25.333Z,99.68
2018-09-03T05:34:33.982Z,99.96
2018-09-03T05:35:42.886Z,99.99
2018-09-03T05:36:51.796Z,99.99
2018-09-03T05:38:00.461Z,99.99
2018-09-03T05:39:09.113Z,99.99
2018-09-03T05:40:17.753Z,99.99
2018-09-03T05:41:26.403Z,99.82
2018-09-03T05:42:35.049Z,99.99
2018-09-03T05:43:43.963Z,99.99
2018-09-03T05:44:52.673Z,99.99
2018-09-03T05:46:01.584Z,99.99
2018-09-03T05:47:10.494Z,99.99
2018-09-03T05:48:19.149Z,99.99
2018-09-03T05:49:27.794Z,99.99
2018-09-03T05:50:36.511Z,99.99
2018-09-03T05:51:45.083Z,99.99
2018-09-03T05:52:54.001Z,99.82
2018-09-03T05:54:02.642Z,99.99
2018-09-03T05:55:11.292Z,99.99
2018-09-03T05:56:20.199Z,99.99
2018-09-03T05:57:28.841Z,99.99
2018-09-03T05:58:37.791Z,99.99
2018-09-03T05:59:46.704Z,99.82
2018-09-03T06:00:55.358Z,99.99
2018-09-03T06:02:04.007Z,99.53
2018-09-03T06:03:12.666Z,99.99
2018-09-03T06:04:21.307Z,99.53
2018-09-03T06:05:30.218Z,99.99
2018-09-03T06:06:39.120Z,99.99
2018-09-03T06:07:47.774Z,99.99
2018-09-03T06:08:56.424Z,99.99
2018-09-03T06:10:05.082Z,99.99
2018-09-03T06:11:14.048Z,99.99
2018-09-03T06:12:22.643Z,99.99
2018-09-03T06:13:31.288Z,99.99
2018-09-03T06:14:39.931Z,99.99
2018-09-03T06:15:48.595Z,99.99
2018-09-03T06:16:57.223Z,99.77
2018-09-03T06:18:05.873Z,99.58
2018-09-03T06:19:14.520Z,99.77
2018-09-03T06:20:23.434Z,99.58
2018-09-03T06:21:32.070Z,99.68
2018-09-03T06:22:40.978Z,99.96
2018-09-03T06:23:49.623Z,99.58
2018-09-03T06:24:58.282Z,99.49
2018-09-03T06:26:06.926Z,99.77
2018-09-03T06:27:15.828Z,99.2
2018-09-03T06:28:24.752Z,99.77
2018-09-03T06:29:33.656Z,99.58
2018-09-03T06:30:42.317Z,99.49
2018-09-03T06:31:50.957Z,99.49
2018-09-03T06:32:59.629Z,99.58
2018-09-03T06:34:08.242Z,99.01
2018-09-03T06:35:16.898Z,99.58
2018-09-03T06:36:25.539Z,99.87
2018-09-03T06:37:34.458Z,99.68
2018-09-03T06:38:43.098Z,99.58
2018-09-03T06:39:51.761Z,99.68
2018-09-03T06:41:00.670Z,99.39
2018-09-03T06:42:09.317Z,99.39
2018-09-03T06:43:17.955Z,99.39
2018-09-03T06:44:26.609Z,99.39
2018-09-03T06:45:35.260Z,99.63
2018-09-03T06:46:43.908Z,98.72
2018-09-03T06:47:52.557Z,99.1
2018-09-03T06:49:01.194Z,98.91
2018-09-03T06:50:10.110Z,98.19
2018-09-03T06:51:18.753Z,98.29
2018-09-03T06:52:27.421Z,98.19
2018-09-03T06:53:36.325Z,98.48
2018-09-03T06:54:44.972Z,98.48
2018-09-03T06:55:53.613Z,98.48
2018-09-03T06:57:02.535Z,98.19
2018-09-03T06:58:11.170Z,98.29
2018-09-03T06:59:19.817Z,98.96
2018-09-03T07:00:28.746Z,98.86
2018-09-03T07:01:37.399Z,98.77
2018-09-03T07:02:46.042Z,98.96
2018-09-03T07:03:54.682Z,98.96
2018-09-03T07:05:03.329Z,98.77
2018-09-03T07:06:11.972Z,98.96
2018-09-03T07:07:20.891Z,99.15
2018-09-03T07:08:29.534Z,98.1
2018-09-03T07:09:38.186Z,98.38
2018-09-03T07:10:46.824Z,98.19
2018-09-03T07:11:55.480Z,98.38
2018-09-03T07:13:04.122Z,98.19
2018-09-03T07:14:12.772Z,98.1
2018-09-03T07:15:21.411Z,98
2018-09-03T07:16:30.068Z,98
2018-09-03T07:17:38.713Z,98.1
2018-09-03T07:18:47.499Z,98.29
2018-09-03T07:19:56.268Z,97.81
2018-09-03T07:21:04.916Z,98.29
2018-09-03T07:22:13.568Z,98
2018-09-03T07:23:22.218Z,98.29
2018-09-03T07:24:30.871Z,97.91
2018-09-03T07:25:39.506Z,98.58
2018-09-03T07:26:48.426Z,98.48
2018-09-03T07:27:57.350Z,97.91
2018-09-03T07:29:06.004Z,98
2018-09-03T07:30:14.642Z,98
2018-09-03T07:31:23.295Z,98.1
2018-09-03T07:32:32.199Z,97.81
2018-09-03T07:33:40.860Z,97.71
2018-09-03T07:34:49.503Z,97.52
2018-09-03T07:35:58.148Z,97.33
2018-09-03T07:37:06.793Z,97.14
2018-09-03T07:38:15.453Z,97.33
2018-09-03T07:39:24.097Z,97.24
2018-09-03T07:40:32.738Z,97.24
2018-09-03T07:41:41.990Z,97.42
2018-09-03T07:42:50.634Z,97.24
2018-09-03T07:43:59.528Z,97.24
2018-09-03T07:45:08.129Z,98
2018-09-03T07:46:16.780Z,98.29
2018-09-03T07:47:25.419Z,98.38
2018-09-03T07:48:34.071Z,97.61
2018-09-03T07:49:42.713Z,97.61
2018-09-03T07:50:51.647Z,97.91
2018-09-03T07:52:00.267Z,97.71
2018-09-03T07:53:08.921Z,98
2018-09-03T07:54:17.801Z,98.1
2018-09-03T07:55:26.450Z,98
2018-09-03T07:56:35.095Z,98
2018-09-03T07:57:43.743Z,98
2018-09-03T07:58:52.395Z,97.91
2018-09-03T08:00:01.308Z,98.58
2018-09-03T08:01:09.968Z,98.58
2018-09-03T08:02:18.601Z,98.19
2018-09-03T08:03:27.254Z,98.1
2018-09-03T08:04:35.903Z,98.77
2018-09-03T08:05:44.553Z,98.48
2018-09-03T08:06:53.198Z,98.86
2018-09-03T08:08:01.844Z,98.77
2018-09-03T08:09:10.491Z,98.82
2018-09-03T08:10:19.161Z,98
2018-09-03T08:11:27.806Z,98.19
2018-09-03T08:12:36.465Z,98.05
2018-09-03T08:13:45.109Z,98.24
2018-09-03T08:14:53.760Z,98.43
2018-09-03T08:16:02.405Z,98.43
2018-09-03T08:17:11.051Z,98.05
2018-09-03T08:18:19.696Z,98.05
2018-09-03T08:19:28.339Z,98.24
2018-09-03T08:20:36.998Z,98.14
2018-09-03T08:21:45.645Z,98.24
2018-09-03T08:22:54.297Z,97.76
2018-09-03T08:24:02.938Z,97.96
2018-09-03T08:25:11.854Z,97.52
2018-09-03T08:26:20.502Z,98.19
2018-09-03T08:27:29.151Z,98.1
2018-09-03T08:28:37.794Z,96.56
2018-09-03T08:29:46.451Z,96.94
2018-09-03T08:30:55.354Z,97.04
2018-09-03T08:32:04.003Z,96.56
2018-09-03T08:33:12.645Z,96.7
2018-09-03T08:34:21.307Z,96.51
2018-09-03T08:35:30.296Z,94.68
2018-09-03T08:36:39.231Z,94.78
2018-09-03T08:37:47.906Z,93.68
2018-09-03T08:38:56.527Z,93.68
2018-09-03T08:40:05.258Z,93.77
2018-09-03T08:41:13.988Z,93.58
2018-09-03T08:42:22.644Z,91.94
2018-09-03T08:43:31.289Z,92.13
2018-09-03T08:44:39.992Z,93.38
2018-09-03T08:45:48.590Z,93.77
2018-09-03T08:46:57.241Z,91.66
2018-09-03T08:48:05.892Z,93
2018-09-03T08:49:14.536Z,93.1
2018-09-03T08:50:23.187Z,93
2018-09-03T08:51:31.832Z,92.43
2018-09-03T08:52:40.476Z,92.23
2018-09-03T08:53:49.124Z,91.66
2018-09-03T08:54:57.771Z,91.66
2018-09-03T08:56:06.688Z,91.85
2018-09-03T08:57:15.332Z,91.94
2018-09-03T08:58:23.987Z,92.28
2018-09-03T08:59:32.635Z,90.45
2018-09-03T09:00:41.292Z,90.35
2018-09-03T09:01:50.208Z,90.35
2018-09-03T09:02:58.856Z,90.64
2018-09-03T09:04:07.507Z,90.06
2018-09-03T09:05:16.424Z,90.64
2018-09-03T09:06:25.068Z,90.11
2018-09-03T09:07:33.980Z,89.34
2018-09-03T09:08:42.638Z,89.05
2018-09-03T09:09:51.293Z,89.15
2018-09-03T09:10:59.941Z,88.81
2018-09-03T09:12:08.591Z,88.23
2018-09-03T09:13:17.238Z,87.84
2018-09-03T09:14:25.889Z,87.36
2018-09-03T09:15:34.542Z,87.26
2018-09-03T09:16:43.458Z,87.26
2018-09-03T09:17:52.108Z,88.04
2018-09-03T09:19:01.017Z,88.09
2018-09-03T09:20:09.943Z,88.09
2018-09-03T09:21:18.857Z,88.67
2018-09-03T09:22:27.508Z,89.15
2018-09-03T09:23:36.152Z,89.15
2018-09-03T09:24:44.802Z,88.57
2018-09-03T09:25:53.999Z,88.28
2018-09-03T09:27:02.914Z,88.18
2018-09-03T09:28:11.565Z,89.63
2018-09-03T09:29:20.739Z,88.47
2018-09-03T09:30:29.388Z,88.85
2018-09-03T09:31:38.037Z,88.38
2018-09-03T09:32:46.688Z,88.95
2018-09-03T09:33:55.354Z,87.99
2018-09-03T09:35:04.265Z,88.09
2018-09-03T09:36:12.916Z,88.67
2018-09-03T09:37:21.567Z,88.76
2018-09-03T09:38:30.213Z,88.38
2018-09-03T09:39:38.859Z,88.09
2018-09-03T09:40:47.512Z,88.38
2018-09-03T09:41:56.169Z,87.6
2018-09-03T09:43:04.961Z,87.8
2018-09-03T09:44:13.475Z,87.46
2018-09-03T09:45:22.149Z,87.55
2018-09-03T09:46:30.806Z,87.17
2018-09-03T09:47:39.453Z,87.36
2018-09-03T09:48:48.104Z,87.55
2018-09-03T09:49:56.750Z,86.88
2018-09-03T09:51:05.393Z,87.07
2018-09-03T09:52:14.320Z,86.59
2018-09-03T09:53:23.253Z,86.59
2018-09-03T09:54:32.198Z,87.36
2018-09-03T09:55:40.838Z,86.98
2018-09-03T09:56:49.496Z,86.49
2018-09-03T09:57:58.143Z,86.25
2018-09-03T09:59:06.802Z,85.96
2018-09-03T10:00:15.707Z,84.32
2018-09-03T10:01:24.360Z,84.61
2018-09-03T10:02:33.011Z,85.09
2018-09-03T10:03:41.661Z,84.32
2018-09-03T10:04:50.301Z,84.9
2018-09-03T10:05:58.953Z,84.32
2018-09-03T10:07:07.606Z,84.42
2018-09-03T10:08:16.260Z,84.32
2018-09-03T10:09:24.913Z,84.27
2018-09-03T10:10:33.554Z,84.36
2018-09-03T10:11:42.209Z,84.55
2018-09-03T10:12:51.143Z,83.69
2018-09-03T10:13:59.799Z,83.15
2018-09-03T10:15:08.479Z,82.57
2018-09-03T10:16:17.208Z,81.99
2018-09-03T10:17:25.935Z,81.51
2018-09-03T10:18:34.591Z,80.78
2018-09-03T10:19:43.232Z,80.49
2018-09-03T10:20:51.929Z,79.52
2018-09-03T10:22:00.534Z,80.1
2018-09-03T10:23:09.192Z,80.39
2018-09-03T10:24:18.131Z,79.24
2018-09-03T10:25:26.779Z,79.08
2018-09-03T10:26:35.427Z,79.37
2018-09-03T10:27:44.075Z,78.69
2018-09-03T10:28:52.737Z,77.83
2018-09-03T10:30:01.643Z,77.92
2018-09-03T10:31:10.564Z,77.96
2018-09-03T10:32:19.469Z,77.34
2018-09-03T10:33:28.402Z,77.92
2018-09-03T10:34:37.045Z,77.19
2018-09-03T10:35:45.699Z,76.9
2018-09-03T10:36:54.342Z,76.7
2018-09-03T10:38:03.003Z,77.28
2018-09-03T10:39:11.652Z,76.03
2018-09-03T10:40:20.306Z,76.51
2018-09-03T10:41:28.953Z,76.51
2018-09-03T10:42:37.602Z,77
2018-09-03T10:43:46.257Z,77
2018-09-03T10:44:54.913Z,76.32
2018-09-03T10:46:03.566Z,77.09
2018-09-03T10:47:12.294Z,77.05
2018-09-03T10:48:20.863Z,76.9
2018-09-03T10:49:29.508Z,77.09
2018-09-03T10:50:38.171Z,76.9
2018-09-03T10:51:46.821Z,76.9
2018-09-03T10:52:55.473Z,75.35
2018-09-03T10:54:04.122Z,75.29
2018-09-03T10:55:13.040Z,75.26
2018-09-03T10:56:21.952Z,75.2
2018-09-03T10:57:30.602Z,75.68
2018-09-03T10:58:39.251Z,75.48
2018-09-03T10:59:47.916Z,76.35
2018-09-03T11:00:56.828Z,74.71
2018-09-03T11:02:05.479Z,75.39
2018-09-03T11:03:14.128Z,75.45
2018-09-03T11:04:22.778Z,74.87
2018-09-03T11:05:31.434Z,75.84
2018-09-03T11:06:40.082Z,75.54
2018-09-03T11:07:48.734Z,75.45
2018-09-03T11:08:57.378Z,75.16
2018-09-03T11:10:06.309Z,75.35
2018-09-03T11:11:14.962Z,75.16
2018-09-03T11:12:23.612Z,74.96
2018-09-03T11:13:32.266Z,74.87
2018-09-03T11:14:41.188Z,74.52
2018-09-03T11:15:50.096Z,74.62
2018-09-03T11:16:58.751Z,74.48
2018-09-03T11:18:07.660Z,74.9
2018-09-03T11:19:16.314Z,75.1
2018-09-03T11:20:24.964Z,75.78
2018-09-03T11:21:33.807Z,75.29
2018-09-03T11:22:42.935Z,74.81
2018-09-03T11:23:51.585Z,75.29
2018-09-03T11:25:00.571Z,75.2
2018-09-03T11:26:09.218Z,74.71
2018-09-03T11:27:17.875Z,75
2018-09-03T11:28:26.522Z,74.32
2018-09-03T11:29:35.172Z,74.77
2018-09-03T11:30:44.083Z,75.2
2018-09-03T11:31:52.738Z,75.54
2018-09-03T11:33:01.386Z,75.48
2018-09-03T11:34:10.310Z,75.97
2018-09-03T11:35:18.961Z,76.93
2018-09-03T11:36:27.620Z,77.13
2018-09-03T11:37:36.269Z,75.68
2018-09-03T11:38:44.917Z,76.93
2018-09-03T11:39:53.566Z,77.03
2018-09-03T11:41:02.216Z,77.03
2018-09-03T11:42:10.880Z,76.84
2018-09-03T11:43:19.529Z,75.58
2018-09-03T11:44:28.180Z,75.68
2018-09-03T11:45:36.828Z,75.48
2018-09-03T11:46:45.521Z,75.87
2018-09-03T11:47:54.398Z,75.97
2018-09-03T11:49:03.049Z,74.94
2018-09-03T11:50:11.693Z,74.9
2018-09-03T11:51:20.621Z,75.2
2018-09-03T11:52:29.273Z,74.52
2018-09-03T11:53:37.927Z,74.46
2018-09-03T11:54:46.577Z,74.42
2018-09-03T11:55:55.229Z,74.07
2018-09-03T11:57:03.893Z,74.07
2018-09-03T11:58:12.809Z,73.49
2018-09-03T11:59:21.463Z,72.56
2018-09-03T12:00:30.151Z,72.46
2018-09-03T12:01:38.763Z,72.46
2018-09-03T12:02:47.410Z,72.56
2018-09-03T12:03:56.073Z,72.85
2018-09-03T12:05:04.717Z,72.27
2018-09-03T12:06:13.372Z,72.08
2018-09-03T12:07:22.019Z,72.46
2018-09-03T12:08:30.678Z,72.46
2018-09-03T12:09:39.318Z,72.27
2018-09-03T12:10:47.978Z,72.08
2018-09-03T12:11:56.626Z,72.36
2018-09-03T12:13:05.288Z,72.75
2018-09-03T12:14:13.940Z,74.11
2018-09-03T12:15:22.586Z,73.91
2018-09-03T12:16:31.235Z,72.66
2018-09-03T12:17:39.883Z,73.14
2018-09-03T12:18:48.546Z,74.49
2018-09-03T12:19:57.193Z,72.85
2018-09-03T12:21:05.879Z,73.88
2018-09-03T12:22:14.493Z,72.91
2018-09-03T12:23:23.155Z,73.59
2018-09-03T12:24:32.065Z,74.17
2018-09-03T12:25:40.720Z,74.46
2018-09-03T12:26:49.368Z,74.42
2018-09-03T12:27:58.024Z,74.81
2018-09-03T12:29:06.674Z,74.23
2018-09-03T12:30:15.326Z,74.42
2018-09-03T12:31:24.052Z,74.62
2018-09-03T12:32:32.630Z,74.85
2018-09-03T12:33:41.284Z,75.04
2018-09-03T12:34:49.939Z,74.36
2018-09-03T12:35:58.858Z,74.46
2018-09-03T12:37:07.527Z,73.97
2018-09-03T12:38:16.155Z,73.59
2018-09-03T12:39:24.803Z,74.07
2018-09-03T12:40:33.735Z,74.36
2018-09-03T12:41:42.377Z,75.33
2018-09-03T12:42:51.325Z,76.01
2018-09-03T12:43:59.951Z,76.49
2018-09-03T12:45:08.873Z,76.1
2018-09-03T12:46:17.870Z,74.3
2018-09-03T12:47:26.494Z,73.14
2018-09-03T12:48:35.153Z,73.14
2018-09-03T12:49:44.059Z,73.24
2018-09-03T12:50:53.376Z,72.85
2018-09-03T12:52:02.296Z,72.95
2018-09-03T12:53:11.219Z,72.85
2018-09-03T12:54:19.873Z,72.66
2018-09-03T12:55:28.514Z,72.56
2018-09-03T12:56:37.176Z,72.85
2018-09-03T12:57:45.823Z,72.17
2018-09-03T12:58:54.485Z,72.36
2018-09-03T13:00:05.146Z,73.72
2018-09-03T13:01:11.785Z,73.43
2018-09-03T13:02:20.432Z,73.82
2018-09-03T13:03:29.096Z,73.82
2018-09-03T13:04:38.014Z,74.01
2018-09-03T13:05:46.665Z,73.91
2018-09-03T13:06:55.316Z,74.01
2018-09-03T13:08:03.977Z,73.08
2018-09-03T13:09:12.630Z,73.33
2018-09-03T13:10:21.283Z,72.46
2018-09-03T13:11:29.934Z,72.3
2018-09-03T13:12:38.596Z,72.95
2018-09-03T13:13:47.528Z,72.17
2018-09-03T13:14:56.173Z,72.21
2018-09-03T13:16:04.829Z,72.27
2018-09-03T13:17:13.473Z,72.95
2018-09-03T13:18:22.409Z,72.75
2018-09-03T13:19:31.057Z,72.46
2018-09-03T13:20:39.714Z,73.04
2018-09-03T13:21:48.624Z,74.59
2018-09-03T13:22:57.287Z,75.46
2018-09-03T13:24:05.937Z,73.72
2018-09-03T13:25:14.591Z,74.3
2018-09-03T13:26:23.234Z,75.23
2018-09-03T13:27:31.882Z,76.87
2018-09-03T13:28:40.537Z,77.07
2018-09-03T13:29:49.191Z,76.01
2018-09-03T13:30:57.846Z,76.49
2018-09-03T13:32:06.487Z,77.26
2018-09-03T13:33:15.411Z,77.17
2018-09-03T13:34:24.075Z,77.45
2018-09-03T13:35:32.736Z,77.17
2018-09-03T13:36:41.383Z,77.65
2018-09-03T13:37:50.035Z,78.03
2018-09-03T13:38:58.683Z,78.23
2018-09-03T13:40:07.637Z,77.07
2018-09-03T13:41:16.289Z,77.32
2018-09-03T13:42:25.331Z,77.17
2018-09-03T13:43:34.374Z,77.13
2018-09-03T13:44:43.300Z,77.13
2018-09-03T13:45:51.950Z,77.22
2018-09-03T13:47:00.594Z,77.8
2018-09-03T13:48:09.264Z,79.64
2018-09-03T13:49:18.238Z,78.58
2018-09-03T13:50:26.900Z,78.38
2018-09-03T13:51:35.559Z,78.48
2018-09-03T13:52:44.210Z,78.67
2018-09-03T13:53:53.175Z,79.25
2018-09-03T13:55:01.882Z,79.93
2018-09-03T13:56:10.889Z,79.06
2018-09-03T13:57:19.547Z,78.96
2018-09-03T13:58:28.194Z,78.38
2018-09-03T13:59:36.853Z,78.19
2018-09-03T14:00:45.499Z,78.87
2018-09-03T14:01:54.157Z,78.77
2018-09-03T14:03:02.803Z,78.77
2018-09-03T14:04:11.463Z,79.25
2018-09-03T14:05:20.107Z,80.03
2018-09-03T14:06:28.761Z,78.67
2018-09-03T14:07:37.708Z,79.16
2018-09-03T14:08:46.623Z,79.16
2018-09-03T14:09:55.279Z,79.25
2018-09-03T14:11:03.930Z,78.48
2018-09-03T14:12:12.633Z,78.48
2018-09-03T14:13:21.232Z,78.09
2018-09-03T14:14:29.883Z,78.58
2018-09-03T14:15:38.545Z,78
2018-09-03T14:16:47.191Z,77.61
2018-09-03T14:17:56.097Z,77.9
2018-09-03T14:19:04.752Z,77.8
2018-09-03T14:20:13.400Z,78
2018-09-03T14:21:22.057Z,77.9
2018-09-03T14:22:30.969Z,78.77
2018-09-03T14:23:39.880Z,78.87
2018-09-03T14:24:48.528Z,79.16
2018-09-03T14:25:57.438Z,79.2
2018-09-03T14:27:06.143Z,79.06
2018-09-03T14:28:15.060Z,80.26
2018-09-03T14:29:23.973Z,79.29
2018-09-03T14:30:32.936Z,78.91
2018-09-03T14:31:41.546Z,79.1
2018-09-03T14:32:50.198Z,78.61
2018-09-03T14:33:58.919Z,78.03
2018-09-03T14:35:07.756Z,75.81
2018-09-03T14:36:16.677Z,76.49
2018-09-03T14:37:25.585Z,76.29
2018-09-03T14:38:34.238Z,76.29
2018-09-03T14:39:42.888Z,76.74
2018-09-03T14:40:51.546Z,76.97
2018-09-03T14:42:00.197Z,77.07
2018-09-03T14:43:09.166Z,77.17
2018-09-03T14:44:17.771Z,77.36
2018-09-03T14:45:26.454Z,77.17
2018-09-03T14:46:35.065Z,77.26
2018-09-03T14:47:43.720Z,77.07
2018-09-03T14:48:52.370Z,77.55